Time;durP1;ratioP1;P1;durP2;ratioP2;P2;SDS_P1;SDS_P2;PMS_P1;PMS_P2;Temp;Humidity;BMP_temperature;BMP_pressure;BME280_temperature;BME280_humidity;BME280_pressure;Samples;Min_cycle;Max_cycle;Signal;HPM_P1;HPM_P2
2021/08/21 00:00:11;;;;;;;13.48;7.82;;;;;;;17.63;76.41;101757.72;5031615;28;20492;-56
2021/08/21 00:02:39;;;;;;;12.68;7.95;;;;;;;17.63;76.77;101763.22;5031798;28;20042;-56
2021/08/21 00:05:07;;;;;;;11.95;7.22;;;;;;;17.61;76.86;101755.28;5030423;28;20107;-56
2021/08/21 00:07:35;;;;;;;10.05;6.93;;;;;;;17.58;76.37;101750.34;5032072;28;20038;-56
2021/08/21 00:10:19;;;;;;;10.18;6.90;;;;;;;17.53;76.69;101755.06;5031691;28;20044;-57
2021/08/21 00:12:47;;;;;;;9.90;6.55;;;;;;;17.51;76.29;101751.78;5031665;28;20044;-60
2021/08/21 00:15:19;;;;;;;12.38;7.32;;;;;;;17.42;76.89;101752.44;5031843;28;20041;-60
2021/08/21 00:17:46;;;;;;;12.98;7.50;;;;;;;17.41;77.02;101750.81;5031793;28;20440;-57
2021/08/21 00:20:15;;;;;;;12.32;7.25;;;;;;;17.38;77.04;101745.84;5031963;28;20046;-59
2021/08/21 00:22:43;;;;;;;11.73;7.63;;;;;;;17.36;77.45;101755.53;5031807;28;20032;-60
2021/08/21 00:25:12;;;;;;;10.70;7.15;;;;;;;17.35;77.60;101740.13;5031354;28;20094;-59
2021/08/21 00:27:41;;;;;;;11.73;7.60;;;;;;;17.31;77.71;101750.88;5031143;28;20381;-61
2021/08/21 00:30:09;;;;;;;13.98;7.55;;;;;;;17.23;78.05;101757.03;5031150;28;20061;-60
2021/08/21 00:32:37;;;;;;;12.27;7.10;;;;;;;17.18;78.44;101757.91;5031656;28;20125;-60
2021/08/21 00:35:07;;;;;;;10.00;6.78;;;;;;;17.24;78.57;101755.91;5031762;28;20480;-58
2021/08/21 00:37:35;;;;;;;13.18;6.63;;;;;;;17.31;78.18;101756.41;5030676;28;20064;-59
2021/08/21 00:40:05;;;;;;;9.95;6.57;;;;;;;17.35;78.18;101751.97;5033959;28;20053;-60
2021/08/21 00:42:33;;;;;;;10.68;6.70;;;;;;;17.38;77.94;101751.38;5034866;28;20037;-60
2021/08/21 00:45:01;;;;;;;10.60;7.05;;;;;;;17.42;77.76;101757.13;5035235;28;20056;-55
2021/08/21 00:47:29;;;;;;;13.57;6.82;;;;;;;17.43;77.60;101748.56;5033749;28;20136;-59
2021/08/21 00:49:57;;;;;;;10.68;7.25;;;;;;;17.41;77.50;101748.06;5017410;28;20507;-60
2021/08/21 00:52:34;;;;;;;12.02;7.63;;;;;;;17.40;77.82;101749.16;5033588;28;20065;-59
2021/08/21 00:55:02;;;;;;;13.23;6.97;;;;;;;17.40;77.86;101743.63;5031906;28;20534;-56
2021/08/21 00:57:30;;;;;;;10.70;6.93;;;;;;;17.40;77.76;101740.88;5033498;28;20124;-55
2021/08/21 00:59:58;;;;;;;10.02;6.78;;;;;;;17.42;78.24;101743.34;5033542;28;20099;-55
2021/08/21 01:02:26;;;;;;;11.23;7.63;;;;;;;17.43;77.99;101745.81;5033604;28;20141;-58
2021/08/21 01:04:57;;;;;;;13.68;7.53;;;;;;;17.45;78.00;101740.81;5014667;28;20061;-59
2021/08/21 01:07:33;;;;;;;10.93;7.28;;;;;;;17.45;78.07;101742.75;5033401;28;20451;-59
2021/08/21 01:10:10;;;;;;;12.55;7.70;;;;;;;17.42;77.97;101746.13;5032741;28;20081;-60
2021/08/21 01:12:42;;;;;;;11.15;7.65;;;;;;;17.40;78.12;101743.63;5033484;28;20052;-60
2021/08/21 01:15:11;;;;;;;13.20;7.95;;;;;;;17.38;78.42;101740.34;5033294;28;20033;-60
2021/08/21 01:17:39;;;;;;;12.35;8.70;;;;;;;17.34;78.56;101744.81;5033526;28;20045;-60
2021/08/21 01:20:09;;;;;;;11.40;7.32;;;;;;;17.29;78.85;101747.59;5033073;28;20063;-60
2021/08/21 01:22:39;;;;;;;11.48;7.40;;;;;;;17.23;78.90;101743.28;5032939;28;20129;-56
2021/08/21 01:25:29;;;;;;;12.90;8.25;;;;;;;17.13;79.17;101744.19;5033054;28;20500;-58
2021/08/21 01:27:58;;;;;;;12.57;7.88;;;;;;;17.04;79.26;101741.22;5034485;28;20060;-58
2021/08/21 01:30:37;;;;;;;11.43;7.68;;;;;;;16.97;79.55;101746.25;5032688;28;20140;-59
2021/08/21 01:33:22;;;;;;;15.02;8.02;;;;;;;16.90;79.79;101743.00;5032905;28;20123;-60
2021/08/21 01:35:54;;;;;;;11.32;7.75;;;;;;;16.86;80.10;101741.97;5032582;28;20104;-59
2021/08/21 01:38:25;;;;;;;10.63;6.97;;;;;;;16.86;80.16;101743.88;5032660;28;20049;-58
2021/08/21 01:41:05;;;;;;;11.55;7.95;;;;;;;16.90;79.75;101742.19;5034019;28;20038;-54
2021/08/21 01:43:35;;;;;;;12.25;8.15;;;;;;;16.91;79.77;101747.41;5032953;28;20428;-58
2021/08/21 01:46:02;;;;;;;11.80;8.20;;;;;;;16.91;79.88;101744.66;5032635;28;20053;-57
2021/08/21 01:48:32;;;;;;;12.25;7.82;;;;;;;16.90;79.60;101740.25;5032788;28;20053;-58
2021/08/21 01:51:00;;;;;;;11.60;7.55;;;;;;;16.92;79.83;101743.53;5032757;28;20068;-59
2021/08/21 01:53:29;;;;;;;12.23;8.43;;;;;;;16.97;79.60;101740.75;5033400;28;20037;-58
2021/08/21 01:55:56;;;;;;;10.52;7.55;;;;;;;16.99;79.49;101746.78;5032369;28;20048;-59
2021/08/21 01:58:43;;;;;;;10.90;7.05;;;;;;;17.02;78.87;101739.88;5033936;28;20050;-60
2021/08/21 02:01:27;;;;;;;12.68;7.75;;;;;;;17.04;78.69;101737.66;5031958;28;20049;-59
2021/08/21 02:04:20;;;;;;;11.02;7.45;;;;;;;16.98;78.54;101730.53;5032428;28;20060;-59
2021/08/21 02:06:48;;;;;;;10.25;6.82;;;;;;;16.95;78.73;101731.94;5031902;28;20412;-57
2021/08/21 02:09:22;;;;;;;10.52;7.55;;;;;;;16.94;78.71;101732.25;5031932;28;20049;-59
2021/08/21 02:11:51;;;;;;;13.48;7.78;;;;;;;16.87;78.98;101735.34;5032243;28;20073;-58
2021/08/21 02:14:20;;;;;;;13.10;8.02;;;;;;;16.80;79.41;101727.41;5033381;28;20056;-59
2021/08/21 02:16:50;;;;;;;12.95;7.47;;;;;;;16.77;79.52;101736.22;5033435;28;20044;-58
2021/08/21 02:19:19;;;;;;;11.30;7.88;;;;;;;16.81;79.74;101730.97;5031960;28;20038;-59
2021/08/21 02:22:07;;;;;;;12.98;8.40;;;;;;;16.83;79.71;101728.75;5032830;28;20045;-59
2021/08/21 02:24:35;;;;;;;12.68;7.30;;;;;;;16.84;79.44;101727.66;5032191;28;20051;-59
2021/08/21 02:27:04;;;;;;;11.32;7.28;;;;;;;16.86;79.21;101722.69;5032052;28;20038;-59
2021/08/21 02:29:32;;;;;;;11.77;7.25;;;;;;;16.85;79.18;101723.78;5031750;28;20049;-56
2021/08/21 02:32:00;;;;;;;11.38;6.80;;;;;;;16.87;79.38;101729.81;5031243;28;20061;-59
2021/08/21 02:34:31;;;;;;;12.45;7.78;;;;;;;16.88;79.40;101725.13;5033044;28;20056;-57
2021/08/21 02:36:58;;;;;;;12.52;7.30;;;;;;;16.86;78.98;101722.69;5031194;28;20415;-56
2021/08/21 02:39:26;;;;;;;10.95;6.68;;;;;;;16.82;78.95;101727.13;5031653;28;20559;-59
2021/08/21 02:41:54;;;;;;;13.50;7.30;;;;;;;16.84;79.37;101724.91;5033072;28;20037;-58
2021/08/21 02:44:21;;;;;;;11.63;7.35;;;;;;;16.85;78.97;101737.53;5031741;28;20080;-57
2021/08/21 02:46:50;;;;;;;11.25;6.63;;;;;;;16.84;79.14;101741.41;5031313;28;20056;-59
2021/08/21 02:49:17;;;;;;;13.73;7.07;;;;;;;16.85;79.21;101732.03;5032810;28;20072;-58
2021/08/21 02:51:45;;;;;;;12.40;6.70;;;;;;;16.89;79.26;101735.06;5032369;28;20370;-60
2021/08/21 02:54:13;;;;;;;12.32;6.82;;;;;;;16.90;79.33;101723.72;5032571;28;20030;-59
2021/08/21 02:56:42;;;;;;;11.80;7.90;;;;;;;16.92;79.18;101731.72;5011637;28;20100;-56
2021/08/21 02:59:10;;;;;;;13.15;7.50;;;;;;;16.92;79.56;101737.22;5027248;28;20108;-58
2021/08/21 03:01:37;;;;;;;11.88;8.45;;;;;;;16.93;79.66;101728.69;5031880;28;20060;-57
2021/08/21 03:04:06;;;;;;;13.27;8.75;;;;;;;16.98;79.70;101728.63;5031169;28;20056;-56
2021/08/21 03:06:33;;;;;;;11.85;8.18;;;;;;;16.96;80.06;101732.78;5030761;28;20057;-56
2021/08/21 03:09:03;;;;;;;12.45;8.23;;;;;;;16.94;80.19;101727.56;5014811;28;20518;-56
2021/08/21 03:11:31;;;;;;;13.90;8.95;;;;;;;16.97;80.03;101726.16;5031053;28;20860;-59
2021/08/21 03:14:22;;;;;;;15.27;9.55;;;;;;;17.00;80.53;101725.56;5031335;28;20049;-57
2021/08/21 03:16:49;;;;;;;15.23;9.52;;;;;;;16.99;80.73;101724.75;5031158;28;20041;-55
2021/08/21 03:19:17;;;;;;;15.32;9.50;;;;;;;16.96;80.61;101721.78;5031209;28;20103;-57
2021/08/21 03:21:45;;;;;;;14.25;10.32;;;;;;;16.92;81.10;101727.03;5030672;28;20060;-56
2021/08/21 03:24:16;;;;;;;13.35;9.75;;;;;;;16.85;81.43;101721.03;5031304;28;20115;-59
2021/08/21 03:26:45;;;;;;;13.27;9.20;;;;;;;16.78;81.88;101724.09;5031097;28;20087;-56
2021/08/21 03:29:13;;;;;;;11.70;8.50;;;;;;;16.75;82.15;101721.09;5031153;28;20049;-56
2021/08/21 03:31:43;;;;;;;13.63;9.07;;;;;;;16.75;82.25;101710.91;5030529;28;20064;-56
2021/08/21 03:34:11;;;;;;;15.95;9.88;;;;;;;16.75;82.29;101715.59;5030656;28;20103;-59
2021/08/21 03:36:39;;;;;;;15.50;9.57;;;;;;;16.72;82.47;101718.94;5030624;28;20120;-56
2021/08/21 03:39:08;;;;;;;14.55;9.27;;;;;;;16.72;82.70;101721.69;5030925;28;20132;-57
2021/08/21 03:41:37;;;;;;;13.82;9.25;;;;;;;16.75;82.94;101721.09;5031018;28;20041;-57
2021/08/21 03:44:05;;;;;;;14.82;10.73;;;;;;;16.79;83.06;101717.50;5030906;28;20064;-56
2021/08/21 03:46:35;;;;;;;16.73;11.05;;;;;;;16.78;83.07;101712.25;5030865;28;20080;-57
2021/08/21 03:49:05;;;;;;;14.55;10.68;;;;;;;16.76;83.11;101712.56;5030317;28;20083;-56
2021/08/21 03:51:33;;;;;;;13.80;10.10;;;;;;;16.75;83.16;101718.34;5031040;28;20137;-55
2021/08/21 03:54:02;;;;;;;14.70;10.45;;;;;;;16.76;83.15;101718.06;5031878;28;20037;-55
2021/08/21 03:56:31;;;;;;;16.00;11.05;;;;;;;16.81;83.57;101714.44;5031071;28;20283;-56
2021/08/21 03:59:05;;;;;;;17.77;11.30;;;;;;;16.82;83.49;101716.09;5030559;28;20120;-53
2021/08/21 04:01:39;;;;;;;15.20;10.82;;;;;;;16.81;83.58;101708.94;5030224;28;20045;-56
2021/08/21 04:04:14;;;;;;;14.40;10.73;;;;;;;16.80;83.56;101712.81;5030365;28;20060;-55
2021/08/21 04:06:42;;;;;;;16.90;11.60;;;;;;;16.79;83.50;101709.25;5030710;28;20046;-56
2021/08/21 04:09:16;;;;;;;17.25;11.18;;;;;;;16.77;84.16;101708.69;5030925;28;20052;-56
2021/08/21 04:11:44;;;;;;;16.45;11.50;;;;;;;16.76;84.16;101707.06;5030578;28;20042;-56
2021/08/21 04:14:14;;;;;;;15.98;10.65;;;;;;;16.76;84.10;101711.72;5034983;28;20076;-56
2021/08/21 04:16:42;;;;;;;15.43;11.15;;;;;;;16.77;84.44;101713.38;5035414;28;20139;-55
2021/08/21 04:19:11;;;;;;;12.20;9.10;;;;;;;16.80;84.17;101718.31;5033893;28;20507;-53
2021/08/21 04:21:41;;;;;;;14.68;10.80;;;;;;;16.85;84.26;101721.03;5034178;28;20077;-54
2021/08/21 04:24:15;;;;;;;17.30;11.57;;;;;;;16.90;84.07;101715.47;5034497;28;20049;-55
2021/08/21 04:26:45;;;;;;;19.95;12.27;;;;;;;16.94;83.58;101716.56;5034244;28;20073;-59
2021/08/21 04:29:14;;;;;;;19.00;13.23;;;;;;;16.96;83.79;101714.34;5019107;28;20467;-60
2021/08/21 04:31:42;;;;;;;15.70;12.15;;;;;;;16.96;83.92;101713.53;5034602;28;20081;-59
2021/08/21 04:34:11;;;;;;;17.08;13.02;;;;;;;16.93;83.48;101716.81;5034848;28;20056;-56
2021/08/21 04:36:38;;;;;;;17.67;13.23;;;;;;;16.94;83.83;101716.56;5036551;28;20037;-56
2021/08/21 04:39:08;;;;;;;21.10;13.00;;;;;;;16.96;83.81;101711.59;5036061;28;20038;-59
2021/08/21 04:41:36;;;;;;;18.63;13.13;;;;;;;16.95;83.38;101714.63;5034474;28;20048;-56
2021/08/21 04:44:04;;;;;;;17.98;12.73;;;;;;;16.91;83.71;101706.13;5034040;28;20044;-54
2021/08/21 04:46:34;;;;;;;17.00;13.10;;;;;;;16.86;83.88;101705.34;5033673;28;20045;-54
2021/08/21 04:49:03;;;;;;;18.73;12.85;;;;;;;16.81;83.97;101714.44;5033644;28;20077;-57
2021/08/21 04:51:31;;;;;;;15.10;11.43;;;;;;;16.77;84.28;101708.69;5034222;28;20041;-56
2021/08/21 04:54:01;;;;;;;15.98;11.80;;;;;;;16.78;84.30;101710.34;5033851;28;20103;-56
2021/08/21 04:56:29;;;;;;;19.33;13.07;;;;;;;16.81;84.51;101719.97;5034946;28;20041;-56
2021/08/21 04:59:22;;;;;;;18.02;13.10;;;;;;;16.85;84.44;101720.22;5033475;28;20064;-57
2021/08/21 05:01:53;;;;;;;20.40;13.90;;;;;;;16.82;84.44;101716.09;5033093;28;20056;-56
2021/08/21 05:04:21;;;;;;;19.55;13.82;;;;;;;16.77;84.66;101711.44;5033814;28;20122;-57
2021/08/21 05:06:51;;;;;;;19.92;13.50;;;;;;;16.73;84.59;101718.63;5033648;28;20050;-57
2021/08/21 05:09:18;;;;;;;18.65;12.65;;;;;;;16.71;85.00;101709.00;5033759;28;20488;-57
2021/08/21 05:11:51;;;;;;;18.23;12.23;;;;;;;16.71;84.97;101720.00;5033501;28;20049;-57
2021/08/21 05:14:19;;;;;;;19.30;12.60;;;;;;;16.70;85.31;101708.19;5022873;28;20049;-56
2021/08/21 05:16:47;;;;;;;21.10;12.90;;;;;;;16.71;85.23;101714.50;5029514;28;20787;-56
2021/08/21 05:19:52;;;;;;;15.18;11.52;;;;;;;16.72;85.18;101711.47;5034361;28;20451;-56
2021/08/21 05:22:46;;;;;;;20.10;14.48;;;;;;;16.78;85.14;101723.25;5033338;28;20034;-56
2021/08/21 05:25:19;;;;;;;18.02;14.82;;;;;;;16.77;85.15;101718.88;5018848;28;20060;-58
2021/08/21 05:27:47;;;;;;;22.48;14.70;;;;;;;16.77;85.10;101718.88;5033346;28;20611;-57
2021/08/21 05:30:16;;;;;;;18.77;15.40;;;;;;;16.75;85.20;101721.09;5014640;28;20057;-56
2021/08/21 05:32:43;;;;;;;18.92;12.52;;;;;;;16.73;85.20;101717.81;5033980;28;20038;-54
2021/08/21 05:35:11;;;;;;;24.00;15.10;;;;;;;16.72;85.40;101721.69;5032781;28;20045;-55
2021/08/21 05:37:39;;;;;;;19.83;15.98;;;;;;;16.70;85.70;101713.69;5034158;28;20042;-55
2021/08/21 05:40:07;;;;;;;23.55;15.98;;;;;;;16.71;85.56;101720.00;5034374;28;20041;-54
2021/08/21 05:42:35;;;;;;;19.63;14.63;;;;;;;16.71;85.79;101720.84;5034102;28;20403;-54
2021/08/21 05:45:03;;;;;;;26.63;15.20;;;;;;;16.73;85.84;101726.06;5033613;28;20052;-56
2021/08/21 05:47:31;;;;;;;18.73;13.65;;;;;;;16.76;85.57;101731.81;5033825;28;20041;-56
2021/08/21 05:50:01;;;;;;;20.08;13.07;;;;;;;16.79;85.47;101727.72;5034160;28;20041;-59
2021/08/21 05:52:29;;;;;;;19.38;12.85;;;;;;;16.84;85.42;101735.91;5033974;28;20054;-58
2021/08/21 05:54:56;;;;;;;20.13;15.15;;;;;;;16.86;85.12;101730.94;5033900;28;20044;-58
2021/08/21 05:57:35;;;;;;;22.02;15.75;;;;;;;16.89;84.96;101733.13;5032605;28;20381;-58
2021/08/21 06:00:05;;;;;;;20.67;15.75;;;;;;;16.89;84.86;101733.13;5033166;28;20045;-57
2021/08/21 06:02:43;;;;;;;18.65;13.77;;;;;;;16.90;85.14;101734.75;5033665;28;20099;-55
2021/08/21 06:05:12;;;;;;;21.38;15.07;;;;;;;16.92;85.04;101732.53;5033503;28;20148;-56
2021/08/21 06:07:41;;;;;;;21.42;15.18;;;;;;;16.93;85.07;101736.94;5032640;28;20056;-57
2021/08/21 06:10:20;;;;;;;19.98;14.10;;;;;;;16.94;84.75;101735.81;5032362;28;20061;-57
2021/08/21 06:12:49;;;;;;;20.15;15.48;;;;;;;16.98;84.82;101739.66;5032118;28;20125;-58
2021/08/21 06:15:16;;;;;;;36.65;25.80;;;;;;;17.03;84.84;101734.09;5032976;28;20059;-58
2021/08/21 06:17:44;;;;;;;27.20;21.38;;;;;;;17.07;84.32;101733.50;5033170;28;20515;-57
2021/08/21 06:20:13;;;;;;;24.67;19.70;;;;;;;17.09;84.42;101734.84;5033253;28;20041;-57
2021/08/21 06:22:40;;;;;;;23.65;17.08;;;;;;;17.10;84.11;101739.28;5033280;28;20079;-57
2021/08/21 06:25:09;;;;;;;23.08;16.27;;;;;;;17.13;84.11;101738.69;5032923;28;20400;-56
2021/08/21 06:27:37;;;;;;;23.23;16.42;;;;;;;17.15;84.00;101725.44;5031764;28;20044;-58
2021/08/21 06:30:06;;;;;;;24.90;18.08;;;;;;;17.19;83.67;101728.44;5032465;28;20145;-57
2021/08/21 06:32:34;;;;;;;24.23;17.85;;;;;;;17.23;83.70;101726.75;5032947;28;20044;-58
2021/08/21 06:35:01;;;;;;;22.60;17.17;;;;;;;17.24;83.62;101731.13;5032836;28;20496;-57
2021/08/21 06:37:29;;;;;;;25.23;18.70;;;;;;;17.29;83.10;101742.09;5032667;28;20048;-52
2021/08/21 06:39:57;;;;;;;25.67;19.20;;;;;;;17.30;83.47;101732.72;5033080;28;20053;-57
2021/08/21 06:42:24;;;;;;;26.02;18.10;;;;;;;17.32;83.31;101738.78;5032565;28;20523;-57
2021/08/21 06:45:10;;;;;;;;;;;;;;;17.34;83.00;101742.06;5032861;28;20120;-58
2021/08/21 06:47:38;;;;;;;24.70;18.63;;;;;;;17.35;83.06;101729.91;5032692;28;20016;-58
2021/08/21 06:50:06;;;;;;;24.27;17.98;;;;;;;17.36;83.04;101734.31;5032951;28;20496;-57
2021/08/21 06:52:34;;;;;;;21.20;17.50;;;;;;;17.36;83.02;101737.06;5032836;28;20049;-57
2021/08/21 06:55:02;;;;;;;23.35;17.42;;;;;;;17.38;82.75;101737.59;5032825;28;20053;-58
2021/08/21 06:57:30;;;;;;;20.02;15.23;;;;;;;17.39;83.24;101736.50;5032401;28;20124;-58
2021/08/21 06:59:58;;;;;;;22.95;14.98;;;;;;;17.41;82.94;101739.78;5032351;28;20495;-57
2021/08/21 07:02:26;;;;;;;21.77;16.15;;;;;;;17.44;83.14;101733.69;5032346;28;20046;-54
2021/08/21 07:04:54;;;;;;;21.90;17.27;;;;;;;17.49;83.02;101732.00;5032334;28;20061;-58
2021/08/21 07:07:22;;;;;;;23.52;17.10;;;;;;;17.53;82.81;101736.59;5032811;28;20898;-58
2021/08/21 07:09:49;;;;;;;22.58;16.17;;;;;;;17.58;82.73;101733.81;5032306;28;20080;-53
2021/08/21 07:12:17;;;;;;;19.52;13.18;;;;;;;17.63;82.77;101739.28;5031786;28;20041;-55
2021/08/21 07:14:44;;;;;;;19.60;14.20;;;;;;;17.68;82.72;101732.88;5032397;28;20045;-55
2021/08/21 07:17:14;;;;;;;21.65;16.25;;;;;;;17.71;83.13;101731.47;5032319;28;20042;-54
2021/08/21 07:19:42;;;;;;;21.60;15.25;;;;;;;17.75;82.85;101722.31;5032170;28;20046;-55
2021/08/21 07:22:10;;;;;;;20.02;14.30;;;;;;;17.78;82.64;101727.22;5030834;28;20037;-54
2021/08/21 07:24:38;;;;;;;20.13;14.45;;;;;;;17.82;82.71;101721.97;5032428;28;20042;-53
2021/08/21 07:27:05;;;;;;;21.02;16.10;;;;;;;17.84;82.86;101726.06;5031839;28;20408;-52
2021/08/21 07:29:33;;;;;;;21.83;15.90;;;;;;;17.83;82.74;101724.44;5032099;28;20042;-57
2021/08/21 07:32:01;;;;;;;19.90;14.75;;;;;;;17.85;82.94;101716.69;5031727;28;20076;-56
2021/08/21 07:34:28;;;;;;;19.15;14.77;;;;;;;17.86;83.00;101723.84;5031963;28;20034;-59
2021/08/21 07:36:56;;;;;;;19.30;14.60;;;;;;;17.87;83.26;101717.22;5031863;28;20403;-48
2021/08/21 07:39:24;;;;;;;21.55;15.55;;;;;;;17.90;83.08;101713.06;5032281;28;20045;-51
2021/08/21 07:41:52;;;;;;;20.77;14.38;;;;;;;17.91;82.94;101720.19;5031767;28;20124;-51
2021/08/21 07:44:19;;;;;;;19.67;15.27;;;;;;;17.92;83.01;101716.34;5031882;28;20408;-51
2021/08/21 07:46:47;;;;;;;22.13;15.77;;;;;;;17.93;82.91;101720.72;5032823;28;20042;-51
2021/08/21 07:49:14;;;;;;;20.20;13.73;;;;;;;17.93;82.95;101720.72;5034075;28;20511;-49
2021/08/21 07:51:42;;;;;;;18.75;13.52;;;;;;;17.95;82.91;101726.78;5035855;28;20124;-49
2021/08/21 07:54:10;;;;;;;18.67;14.23;;;;;;;17.96;83.12;101725.66;5034347;28;20034;-51
2021/08/21 07:56:38;;;;;;;21.17;14.75;;;;;;;17.99;83.15;101732.50;5035721;28;20041;-51
2021/08/21 07:59:05;;;;;;;20.42;13.90;;;;;;;18.02;82.89;101729.19;5035555;28;20033;-51
2021/08/21 08:01:33;;;;;;;20.45;14.18;;;;;;;18.05;82.77;101731.34;5035170;28;20045;-51
2021/08/21 08:04:01;;;;;;;17.90;13.85;;;;;;;18.08;82.82;101739.00;5035988;28;20041;-49
2021/08/21 08:06:28;;;;;;;19.73;14.85;;;;;;;18.11;82.42;101746.69;5035600;28;20064;-52
2021/08/21 08:08:56;;;;;;;18.73;13.52;;;;;;;18.14;82.31;101740.59;5035582;28;20132;-51
2021/08/21 08:11:24;;;;;;;17.75;11.80;;;;;;;18.16;82.34;101743.88;5035414;28;20053;-50
2021/08/21 08:13:51;;;;;;;15.27;10.68;;;;;;;18.18;82.25;101738.84;5035614;28;20046;-50
2021/08/21 08:16:19;;;;;;;19.65;12.93;;;;;;;18.22;82.30;101739.09;5035634;28;20399;-52
2021/08/21 08:18:47;;;;;;;16.55;12.35;;;;;;;18.25;81.91;101742.06;5035132;28;20041;-50
2021/08/21 08:21:18;;;;;;;17.98;12.93;;;;;;;18.26;81.91;101740.97;5035468;28;20045;-50
2021/08/21 08:23:46;;;;;;;18.05;13.52;;;;;;;18.30;81.88;101743.94;5034995;28;20120;-49
2021/08/21 08:26:14;;;;;;;19.92;13.18;;;;;;;18.34;81.93;101730.38;5033380;28;20060;-50
2021/08/21 08:28:41;;;;;;;16.83;11.55;;;;;;;18.38;81.83;101735.00;5035221;28;20506;-48
2021/08/21 08:31:09;;;;;;;18.10;14.07;;;;;;;18.41;81.79;101728.88;5034210;28;20084;-49
2021/08/21 08:33:37;;;;;;;22.55;16.50;;;;;;;18.44;81.75;101732.97;5034663;28;20043;-53
2021/08/21 08:36:04;;;;;;;17.35;13.13;;;;;;;18.48;81.69;101734.03;5034647;28;20037;-47
2021/08/21 08:38:32;;;;;;;15.95;12.80;;;;;;;18.53;81.81;101736.72;5034712;28;20049;-51
2021/08/21 08:41:01;;;;;;;16.40;12.48;;;;;;;18.57;81.61;101732.25;5030646;28;20124;-49
2021/08/21 08:43:29;;;;;;;18.63;12.15;;;;;;;18.63;81.35;101727.44;5035022;28;20049;-50
2021/08/21 08:45:56;;;;;;;18.08;12.65;;;;;;;18.67;81.00;101732.06;5034245;28;20072;-50
2021/08/21 08:48:25;;;;;;;16.17;11.35;;;;;;;18.72;80.92;101729.22;5034758;28;20029;-48
2021/08/21 08:50:54;;;;;;;16.65;12.20;;;;;;;18.76;80.28;101728.63;5033286;28;20048;-48
2021/08/21 08:53:22;;;;;;;17.45;12.18;;;;;;;18.79;80.96;101722.53;5024730;28;20458;-50
2021/08/21 08:55:49;;;;;;;14.93;11.18;;;;;;;18.81;80.75;101725.81;5033751;28;20136;-49
2021/08/21 08:58:17;;;;;;;17.65;11.85;;;;;;;18.84;80.54;101733.50;5034029;28;20041;-56
2021/08/21 09:00:46;;;;;;;18.67;12.75;;;;;;;18.91;80.09;101731.16;5032795;28;20132;-50
2021/08/21 09:03:22;;;;;;;20.67;12.05;;;;;;;18.97;79.30;101727.19;5034558;28;20034;-53
2021/08/21 09:05:52;;;;;;;19.45;12.40;;;;;;;19.01;78.68;101725.47;5034834;28;20067;-48
2021/08/21 09:08:32;;;;;;;16.33;11.50;;;;;;;19.06;78.69;101728.13;5033843;28;20052;-47
2021/08/21 09:11:02;;;;;;;15.05;8.43;;;;;;;19.11;78.71;101733.56;5033874;28;20130;-48
2021/08/21 09:13:31;;;;;;;16.38;9.40;;;;;;;19.18;77.94;101727.66;5034446;28;20128;-50
2021/08/21 09:16:01;;;;;;;15.68;9.73;;;;;;;19.23;76.99;101732.25;5034431;28;20069;-48
2021/08/21 09:18:29;;;;;;;14.95;8.85;;;;;;;19.27;76.53;101719.50;5034197;28;20050;-50
2021/08/21 09:21:11;;;;;;;14.10;9.73;;;;;;;19.36;75.93;101720.41;5033973;28;20427;-49
2021/08/21 09:23:46;;;;;;;13.77;8.10;;;;;;;19.37;75.83;101727.59;5033552;28;20034;-49
2021/08/21 09:26:26;;;;;;;14.40;10.25;;;;;;;19.37;75.69;101724.81;5034058;28;20167;-48
2021/08/21 09:28:57;;;;;;;16.15;10.80;;;;;;;19.38;74.99;101720.91;5033842;28;20520;-49
2021/08/21 09:31:27;;;;;;;12.50;8.07;;;;;;;19.40;75.40;101715.91;5033793;28;20053;-50
2021/08/21 09:34:01;;;;;;;15.38;11.30;;;;;;;19.44;75.73;101719.69;5033482;28;20044;-50
2021/08/21 09:36:32;;;;;;;13.18;8.75;;;;;;;19.47;75.85;101726.56;5033783;28;20037;-48
2021/08/21 09:39:02;;;;;;;11.40;7.50;;;;;;;19.49;75.29;101725.13;5033625;28;20467;-49
2021/08/21 09:41:30;;;;;;;17.70;10.65;;;;;;;19.52;75.49;101724.50;5033811;28;20067;-48
2021/08/21 09:44:06;;;;;;;13.68;8.73;;;;;;;19.54;74.81;101719.50;5033614;28;20038;-50
2021/08/21 09:46:35;;;;;;;11.82;7.68;;;;;;;19.59;74.72;101718.56;5033801;28;20037;-50
2021/08/21 09:49:07;;;;;;;14.15;8.85;;;;;;;19.65;74.70;101719.28;5033549;28;20041;-47
2021/08/21 09:51:40;;;;;;;16.75;10.00;;;;;;;19.70;74.80;101724.75;5033373;28;20037;-51
2021/08/21 09:54:26;;;;;;;13.45;8.23;;;;;;;19.78;73.52;101715.72;5033462;28;20041;-51
2021/08/21 09:56:55;;;;;;;11.75;8.50;;;;;;;19.82;72.15;101721.47;5032028;28;20065;-51
2021/08/21 09:59:37;;;;;;;12.40;8.30;;;;;;;19.84;72.34;101717.25;5033031;28;20117;-50
2021/08/21 10:02:14;;;;;;;12.05;7.90;;;;;;;19.89;71.72;101714.41;5033207;28;20044;-49
2021/08/21 10:04:43;;;;;;;11.75;7.63;;;;;;;19.93;71.18;101712.63;5032932;28;20072;-48
2021/08/21 10:07:15;;;;;;;9.10;5.60;;;;;;;19.97;69.84;101713.66;5033332;28;20053;-48
2021/08/21 10:09:43;;;;;;;8.35;5.07;;;;;;;20.02;69.47;101709.16;5032899;28;20050;-49
2021/08/21 10:12:12;;;;;;;8.23;5.20;;;;;;;20.04;69.07;101709.66;5032565;28;20575;-50
2021/08/21 10:14:41;;;;;;;8.73;4.68;;;;;;;20.07;68.91;101696.03;5033494;28;20042;-51
2021/08/21 10:17:09;;;;;;;10.10;4.93;;;;;;;20.10;69.13;101700.09;5031708;28;20056;-48
2021/08/21 10:19:38;;;;;;;11.48;5.70;;;;;;;20.12;69.15;101704.19;5032952;28;20041;-45
2021/08/21 10:22:08;;;;;;;11.80;6.22;;;;;;;20.18;69.28;101699.38;5032356;28;20048;-50
2021/08/21 10:24:41;;;;;;;10.27;4.95;;;;;;;20.19;69.68;101706.53;5032819;28;20116;-48
2021/08/21 10:27:21;;;;;;;9.23;5.13;;;;;;;20.19;69.40;101709.31;5032625;28;20121;-48
2021/08/21 10:30:03;;;;;;;8.57;4.75;;;;;;;20.23;69.67;101704.81;5031311;28;20053;-48
2021/08/21 10:32:32;;;;;;;9.40;6.22;;;;;;;20.29;69.59;101698.00;5031231;28;20072;-47
2021/08/21 10:35:00;;;;;;;11.45;7.53;;;;;;;20.37;70.07;101700.03;5032256;28;20069;-48
2021/08/21 10:37:37;;;;;;;13.60;7.72;;;;;;;20.46;70.04;101697.31;5032283;28;20049;-48
2021/08/21 10:40:25;;;;;;;;;;;;;;;20.50;70.00;101692.81;5029457;28;20034;-48
2021/08/21 10:43:01;;;;;;;10.43;6.53;;;;;;;20.59;69.21;101701.22;5019624;28;20044;-48
2021/08/21 10:45:44;;;;;;;9.00;5.43;;;;;;;20.61;68.77;101693.38;5032402;28;20029;-46
2021/08/21 10:48:26;;;;;;;10.70;6.07;;;;;;;20.62;68.00;101687.53;5032437;28;20048;-49
2021/08/21 10:50:54;;;;;;;11.30;5.78;;;;;;;20.68;68.08;101696.53;5032398;28;20130;-46
2021/08/21 10:53:28;;;;;;;9.65;5.97;;;;;;;20.71;67.63;101692.31;5031203;28;20049;-49
2021/08/21 10:55:58;;;;;;;9.77;5.70;;;;;;;20.75;67.42;101693.31;5032265;28;20045;-49
2021/08/21 10:58:28;;;;;;;10.30;6.00;;;;;;;20.71;67.56;101687.63;5032640;28;20037;-50
2021/08/21 11:01:03;;;;;;;11.65;7.38;;;;;;;20.77;67.97;101689.09;5031968;28;20057;-50
2021/08/21 11:03:31;;;;;;;11.15;5.85;;;;;;;20.82;66.20;101688.97;5032055;28;20408;-50
2021/08/21 11:06:09;;;;;;;13.80;7.40;;;;;;;20.95;66.05;101683.66;5030657;28;20053;-47
2021/08/21 11:08:40;;;;;;;11.10;5.05;;;;;;;21.02;64.92;101681.25;5031682;28;20037;-50
2021/08/21 11:11:08;;;;;;;9.07;4.88;;;;;;;21.03;65.28;101678.19;5028409;28;20053;-49
2021/08/21 11:19:39;;;;;;;8.73;3.83;;;;;;;21.14;61.84;101662.09;5023094;28;20045;-49
2021/08/21 11:22:22;;;;;;;6.93;4.05;;;;;;;21.17;62.14;101675.31;5031949;28;20387;-49
2021/08/21 11:24:52;;;;;;;8.48;4.20;;;;;;;21.14;61.52;101675.97;5032262;28;20060;-48
2021/08/21 11:27:34;;;;;;;8.65;3.90;;;;;;;21.12;62.11;101671.84;5032157;28;20048;-51
2021/08/21 11:30:08;;;;;;;7.15;3.47;;;;;;;21.11;62.70;101678.53;5031967;28;20072;-51
2021/08/21 11:32:47;;;;;;;6.05;3.17;;;;;;;21.06;62.83;101672.00;5021735;28;20069;-50
2021/08/21 11:35:20;;;;;;;5.22;3.13;;;;;;;21.03;63.25;101661.56;5031976;28;20403;-52